createdAt,value
2023-12-07T00:04:17.801Z,101020.48
2023-12-07T00:09:23.680Z,101021.65
2023-12-07T00:14:29.569Z,101014.20
2023-12-07T00:19:35.473Z,101020.85
2023-12-07T00:24:41.504Z,101020.42
2023-12-07T00:29:47.599Z,101026.61
2023-12-07T00:34:53.467Z,101030.29
2023-12-07T00:39:59.623Z,101023.02
2023-12-07T00:45:06.732Z,101023.21
2023-12-07T00:50:15.810Z,101027.61
2023-12-07T00:55:21.937Z,101024.09
2023-12-07T01:00:27.999Z,101028.01
2023-12-07T01:05:34.426Z,101027.30
2023-12-07T01:10:40.725Z,101032.00
2023-12-07T01:15:46.867Z,101031.46
2023-12-07T01:20:52.772Z,101032.98
2023-12-07T01:25:59.038Z,101032.02
2023-12-07T01:31:05.280Z,101034.23
2023-12-07T01:36:12.091Z,101029.95
2023-12-07T01:41:18.031Z,101030.96
2023-12-07T01:46:24.415Z,101026.45
2023-12-07T01:51:31.139Z,101026.95
2023-12-07T01:56:37.401Z,101021.11
2023-12-07T02:01:44.288Z,101015.29
2023-12-07T02:06:50.107Z,101016.73
2023-12-07T02:11:55.922Z,101013.63
2023-12-07T02:17:09.694Z,101018.63
2023-12-07T02:22:23.838Z,101015.45
2023-12-07T02:27:38.212Z,101016.36
2023-12-07T02:32:46.449Z,101017.87
2023-12-07T02:37:53.304Z,101020.65
2023-12-07T02:43:00.661Z,101024.66
2023-12-07T02:48:08.168Z,101025.00
2023-12-07T02:53:14.518Z,101025.48
2023-12-07T02:58:20.490Z,101028.98
2023-12-07T03:03:26.376Z,101025.13
2023-12-07T03:08:32.736Z,101025.50
2023-12-07T03:13:38.847Z,101023.79
2023-12-07T03:18:44.739Z,101023.36
2023-12-07T03:23:51.041Z,101018.56
2023-12-07T03:28:56.868Z,101020.90
2023-12-07T03:34:03.111Z,101024.75
2023-12-07T03:39:09.436Z,101023.95
2023-12-07T03:44:15.532Z,101030.87
2023-12-07T03:49:21.542Z,101032.29
2023-12-07T03:54:27.289Z,101034.39
2023-12-07T03:59:33.905Z,101031.87
2023-12-07T04:04:40.143Z,101033.30
2023-12-07T04:09:46.251Z,101037.17
2023-12-07T04:14:52.974Z,101033.19
2023-12-07T04:19:58.977Z,101035.05
2023-12-07T04:25:06.298Z,101033.30
2023-12-07T04:30:14.437Z,101036.02
2023-12-07T04:35:20.260Z,101034.58
2023-12-07T04:40:27.182Z,101035.16
2023-12-07T04:45:33.116Z,101039.34
2023-12-07T04:50:39.090Z,101033.31
2023-12-07T04:55:49.772Z,101033.71
2023-12-07T05:00:56.719Z,101033.89
2023-12-07T05:06:02.638Z,101038.27
2023-12-07T05:11:09.107Z,101034.02
2023-12-07T05:16:15.024Z,101044.95
2023-12-07T05:21:21.288Z,101044.02
2023-12-07T05:26:27.658Z,101049.03
2023-12-07T05:31:34.212Z,101051.58
2023-12-07T05:36:40.067Z,101056.80
2023-12-07T05:41:47.995Z,101058.75
2023-12-07T05:46:53.923Z,101058.52
2023-12-07T05:51:59.962Z,101060.41
2023-12-07T05:57:06.905Z,101062.73
2023-12-07T06:02:12.909Z,101062.41
2023-12-07T06:07:18.963Z,101067.48
2023-12-07T06:12:26.070Z,101073.84
2023-12-07T06:17:34.702Z,101073.40
2023-12-07T06:22:40.800Z,101084.66
2023-12-07T06:27:47.258Z,101096.50
2023-12-07T06:32:53.363Z,101098.66
2023-12-07T06:37:59.384Z,101098.38
2023-12-07T06:43:05.250Z,101100.07
2023-12-07T06:48:11.153Z,101103.71
2023-12-07T06:53:19.778Z,101106.58
2023-12-07T06:58:26.078Z,101112.55
2023-12-07T07:03:32.150Z,101116.70
2023-12-07T07:08:38.019Z,101123.58
2023-12-07T07:13:44.348Z,101120.52
2023-12-07T07:18:50.463Z,101123.52
2023-12-07T07:23:57.601Z,101124.38
2023-12-07T07:29:04.813Z,101122.64
2023-12-07T07:34:11.138Z,101122.97
2023-12-07T07:39:17.247Z,101126.33
2023-12-07T07:44:23.061Z,101128.48
2023-12-07T07:49:29.256Z,101126.65
2023-12-07T07:54:35.035Z,101124.84
2023-12-07T07:59:40.862Z,101124.47
2023-12-07T08:04:47.044Z,101126.98
2023-12-07T08:09:52.926Z,101128.96
2023-12-07T08:14:58.642Z,101129.27
2023-12-07T08:20:04.833Z,101128.72
2023-12-07T08:25:12.353Z,101131.48
2023-12-07T08:30:19.968Z,101134.64
2023-12-07T08:35:25.835Z,101134.98
2023-12-07T08:40:31.971Z,101138.06
2023-12-07T08:45:39.791Z,101150.30
2023-12-07T08:50:45.916Z,101147.33
2023-12-07T08:55:52.611Z,101147.40
2023-12-07T09:00:58.604Z,101142.91
2023-12-07T09:06:06.427Z,101147.52
2023-12-07T09:11:12.355Z,101145.68
2023-12-07T09:16:18.330Z,101148.08
2023-12-07T09:21:24.446Z,101140.08
2023-12-07T09:26:30.590Z,101147.30
2023-12-07T09:31:36.402Z,101151.50
2023-12-07T09:36:42.324Z,101153.04
2023-12-07T09:41:48.893Z,101149.85
2023-12-07T09:46:55.936Z,101149.09
2023-12-07T09:52:02.201Z,101141.40
2023-12-07T09:57:10.534Z,101141.77
2023-12-07T10:02:17.412Z,101144.65
2023-12-07T10:07:39.015Z,101146.56
2023-12-07T10:12:52.209Z,101150.16
2023-12-07T10:18:01.589Z,101150.00
2023-12-07T10:23:09.393Z,101148.44
2023-12-07T10:28:19.182Z,101149.11
2023-12-07T10:33:25.031Z,101146.33
2023-12-07T10:38:33.711Z,101147.69
2023-12-07T10:43:43.920Z,101149.16
2023-12-07T10:48:52.653Z,101151.80
2023-12-07T10:54:04.359Z,101153.92
2023-12-07T10:59:23.710Z,101150.98
2023-12-07T11:04:38.291Z,101153.15
2023-12-07T11:09:49.130Z,101153.55
2023-12-07T11:14:53.762Z,101149.92
2023-12-07T11:20:00.313Z,101147.41
2023-12-07T11:25:09.189Z,101143.00
2023-12-07T11:30:17.359Z,101139.86
2023-12-07T11:35:23.240Z,101138.86
2023-12-07T11:40:30.305Z,101138.55
2023-12-07T11:45:50.131Z,101134.86
2023-12-07T11:51:01.595Z,101141.45
2023-12-07T11:56:11.138Z,101145.83
2023-12-07T12:01:19.528Z,101146.27
2023-12-07T12:06:27.386Z,101144.75
2023-12-07T12:11:33.523Z,101139.20
2023-12-07T12:16:39.916Z,101139.20
2023-12-07T12:21:45.713Z,101142.00
2023-12-07T12:26:52.179Z,101146.27
2023-12-07T12:31:57.941Z,101148.52
2023-12-07T12:37:07.299Z,101147.58
2023-12-07T12:42:13.993Z,101146.77
2023-12-07T12:47:20.934Z,101146.75
2023-12-07T12:52:29.594Z,101145.96
2023-12-07T12:57:37.629Z,101149.17
2023-12-07T13:02:43.502Z,101150.29
2023-12-07T13:07:55.430Z,101150.02
2023-12-07T13:13:08.573Z,101150.27
2023-12-07T13:18:14.470Z,101158.77
2023-12-07T13:23:21.742Z,101157.07
2023-12-07T13:28:27.527Z,101159.75
2023-12-07T13:33:38.938Z,101169.20
2023-12-07T13:38:49.169Z,101172.61
2023-12-07T13:43:55.257Z,101174.09
2023-12-07T13:49:01.182Z,101172.10
2023-12-07T13:54:23.281Z,101172.59
2023-12-07T13:59:38.669Z,101175.28
2023-12-07T14:04:45.159Z,101181.13
2023-12-07T14:09:57.935Z,101188.91
2023-12-07T14:15:08.962Z,101189.27
2023-12-07T14:20:28.163Z,101194.50
2023-12-07T14:25:47.790Z,101205.71
2023-12-07T14:30:57.558Z,101206.27
2023-12-07T14:36:05.372Z,101202.34
2023-12-07T14:41:13.811Z,101201.30
2023-12-07T14:46:22.446Z,101202.10
2023-12-07T14:51:30.626Z,101201.63
2023-12-07T14:56:36.979Z,101197.48
2023-12-07T15:01:43.544Z,101197.29
2023-12-07T15:06:49.636Z,101205.77
2023-12-07T15:11:55.907Z,101213.60
2023-12-07T15:17:02.288Z,101213.16
2023-12-07T15:22:09.250Z,101215.92
2023-12-07T15:27:15.378Z,101222.02
2023-12-07T15:32:21.422Z,101229.64
2023-12-07T15:37:27.528Z,101230.41
2023-12-07T15:42:33.777Z,101226.77
2023-12-07T15:47:39.624Z,101229.08
2023-12-07T15:52:46.274Z,101239.00
2023-12-07T15:57:52.202Z,101241.11
2023-12-07T16:02:58.483Z,101240.47
2023-12-07T16:08:04.759Z,101245.97
2023-12-07T16:13:12.232Z,101241.23
2023-12-07T16:18:18.847Z,101241.85
2023-12-07T16:23:25.253Z,101245.23
2023-12-07T16:28:31.990Z,101244.97
2023-12-07T16:33:38.674Z,101253.03
2023-12-07T16:38:45.606Z,101259.30
2023-12-07T16:43:51.821Z,101268.48
2023-12-07T16:48:57.870Z,101267.52
2023-12-07T16:54:04.628Z,101270.50
2023-12-07T16:59:10.751Z,101264.13
2023-12-07T17:04:17.008Z,101270.35
2023-12-07T17:09:23.705Z,101269.80
2023-12-07T17:14:32.172Z,101268.23
2023-12-07T17:23:12.243Z,101265.41
2023-12-07T17:28:18.073Z,101273.65
2023-12-07T17:33:27.386Z,101281.11
2023-12-07T17:38:33.593Z,101286.11
2023-12-07T17:43:40.025Z,101288.73
2023-12-07T17:48:49.358Z,101286.68
2023-12-07T17:53:55.515Z,101286.59
2023-12-07T17:59:01.862Z,101287.86
2023-12-07T18:04:08.186Z,101280.74
2023-12-07T18:09:17.036Z,101273.61
2023-12-07T18:14:23.194Z,101276.22
2023-12-07T18:19:29.072Z,101276.92
2023-12-07T18:24:35.090Z,101284.52
2023-12-07T18:29:41.183Z,101291.07
2023-12-07T18:34:47.384Z,101289.67
2023-12-07T18:39:55.191Z,101289.61
2023-12-07T18:45:02.541Z,101295.58
2023-12-07T18:50:10.105Z,101298.45
2023-12-07T18:55:16.678Z,101304.42
2023-12-07T19:00:24.306Z,101297.91
2023-12-07T19:05:30.860Z,101297.02
2023-12-07T19:10:36.808Z,101300.81
2023-12-07T19:15:43.084Z,101303.91
2023-12-07T19:20:49.642Z,101302.53
2023-12-07T19:25:55.656Z,101310.23
2023-12-07T19:31:01.779Z,101307.52
2023-12-07T19:36:08.833Z,101314.15
2023-12-07T19:41:15.070Z,101312.32
2023-12-07T19:46:22.558Z,101306.21
2023-12-07T19:51:32.044Z,101311.38
2023-12-07T19:56:38.157Z,101310.67
2023-12-07T20:01:44.159Z,101315.52
2023-12-07T20:06:50.222Z,101314.52
2023-12-07T20:11:56.227Z,101320.27
2023-12-07T20:17:02.214Z,101325.22
2023-12-07T20:22:11.263Z,101326.45
2023-12-07T20:27:20.639Z,101328.34
2023-12-07T20:32:31.462Z,101333.48
2023-12-07T20:37:39.683Z,101337.27
2023-12-07T20:42:45.556Z,101338.68
2023-12-07T20:47:51.570Z,101328.66
2023-12-07T20:52:57.625Z,101326.38
2023-12-07T20:58:03.703Z,101315.74
2023-12-07T21:03:09.523Z,101314.04
2023-12-07T21:08:15.954Z,101318.02
2023-12-07T21:13:21.946Z,101326.89
2023-12-07T21:18:29.596Z,101330.30
2023-12-07T21:23:37.188Z,101333.45
2023-12-07T21:28:43.295Z,101336.27
2023-12-07T21:33:49.670Z,101339.16
2023-12-07T21:38:55.870Z,101343.20
2023-12-07T21:44:01.912Z,101340.77
2023-12-07T21:49:08.147Z,101343.04
2023-12-07T21:54:14.506Z,101345.73
2023-12-07T21:59:20.848Z,101347.05
2023-12-07T22:04:27.234Z,101346.54
2023-12-07T22:09:33.241Z,101351.96
2023-12-07T22:14:40.139Z,101355.71
2023-12-07T22:19:45.916Z,101353.55
2023-12-07T22:24:51.999Z,101355.84
2023-12-07T22:29:58.292Z,101354.73
2023-12-07T22:35:04.923Z,101356.45
2023-12-07T22:40:12.665Z,101348.64
2023-12-07T22:45:19.394Z,101338.74
2023-12-07T22:50:25.506Z,101328.45
2023-12-07T22:55:31.782Z,101318.98
2023-12-07T23:00:37.845Z,101308.66
2023-12-07T23:05:44.801Z,101307.17
2023-12-07T23:10:51.166Z,101307.11
2023-12-07T23:15:57.135Z,101316.79
2023-12-07T23:21:03.187Z,101315.08
2023-12-07T23:26:11.401Z,101317.11
2023-12-07T23:31:17.387Z,101308.67
2023-12-07T23:36:23.187Z,101309.27
2023-12-07T23:41:29.736Z,101301.64
2023-12-07T23:46:35.926Z,101288.89
2023-12-07T23:51:41.826Z,101283.92
2023-12-07T23:56:47.690Z,101285.63
